Time;durP1;ratioP1;P1;durP2;ratioP2;P2;SDS_P1;SDS_P2;PMS_P1;PMS_P2;Temp;Humidity;BMP_temperature;BMP_pressure;BME280_temperature;BME280_humidity;BME280_pressure;Samples;Min_cycle;Max_cycle;Signal;HPM_P1;HPM_P2
2022/07/30 00:00:31;;;;;;;16.80;15.43;;;15.20;99.90;;;;;;5058238;28;20463;-68
2022/07/30 00:02:59;;;;;;;15.93;14.53;;;15.10;99.90;;;;;;5056778;28;21032;-68
2022/07/30 00:05:29;;;;;;;15.00;13.80;;;15.00;99.90;;;;;;5061562;28;20843;-67
2022/07/30 00:07:56;;;;;;;18.23;14.77;;;14.90;99.90;;;;;;5073113;28;20498;-68
2022/07/30 00:10:24;;;;;;;15.53;14.43;;;14.90;99.90;;;;;;5066309;28;20474;-67
2022/07/30 00:12:51;;;;;;;15.90;14.40;;;14.90;99.90;;;;;;5060426;28;20460;-68
2022/07/30 00:15:19;;;;;;;16.17;14.70;;;15.00;99.90;;;;;;5060748;28;20479;-68
2022/07/30 00:20:28;;;;;;;16.40;15.10;;;15.10;99.90;;;;;;5057009;28;20836;-67
2022/07/30 00:22:55;;;;;;;15.87;14.37;;;15.10;99.90;;;;;;5057818;28;20895;-66
2022/07/30 00:25:23;;;;;;;15.23;14.03;;;15.10;99.90;;;;;;5062771;28;20451;-66
2022/07/30 00:27:50;;;;;;;18.67;16.93;;;15.10;99.90;;;;;;5060621;28;21072;-65
2022/07/30 00:30:17;;;;;;;16.27;14.67;;;15.20;99.90;;;;;;5060634;28;20693;-65
2022/07/30 00:32:45;;;;;;;16.20;14.87;;;15.10;99.90;;;;;;5062082;28;20516;-65
2022/07/30 00:35:11;;;;;;;17.77;16.37;;;15.10;99.90;;;;;;5061426;28;20447;-66
2022/07/30 00:37:40;;;;;;;17.10;15.60;;;15.10;99.90;;;;;;5062814;28;20558;-65
2022/07/30 00:40:09;;;;;;;16.93;15.43;;;15.10;99.90;;;;;;5055728;28;20467;-65
2022/07/30 00:42:41;;;;;;;17.70;15.77;;;15.10;99.90;;;;;;5061746;28;20482;-65
2022/07/30 00:45:10;;;;;;;16.90;15.30;;;15.10;99.90;;;;;;5058270;28;20464;-66
2022/07/30 00:47:37;;;;;;;16.77;15.13;;;15.20;99.90;;;;;;5056653;28;20493;-65
2022/07/30 00:50:10;;;;;;;16.27;14.70;;;15.20;99.90;;;;;;5065752;28;20448;-66
2022/07/30 00:52:38;;;;;;;15.43;14.13;;;15.20;99.90;;;;;;5061923;28;20462;-65
2022/07/30 00:55:12;;;;;;;14.00;13.03;;;15.10;99.90;;;;;;5058275;28;20854;-67
2022/07/30 00:57:41;;;;;;;15.97;14.50;;;15.10;99.90;;;;;;5057898;28;20463;-66
2022/07/30 01:00:12;;;;;;;15.43;13.93;;;15.00;99.90;;;;;;5060639;28;20464;-65
2022/07/30 01:02:39;;;;;;;14.80;13.60;;;14.90;99.90;;;;;;5059368;28;20550;-65
2022/07/30 01:05:10;;;;;;;16.70;15.30;;;14.80;99.90;;;;;;5061434;28;20505;-66
2022/07/30 01:07:38;;;;;;;18.43;15.33;;;14.80;99.90;;;;;;5058671;28;20487;-65
2022/07/30 01:10:10;;;;;;;16.43;15.03;;;14.70;99.90;;;;;;5059131;28;20977;-66
2022/07/30 01:12:39;;;;;;;16.70;15.30;;;14.80;99.90;;;;;;5056069;28;20471;-65
2022/07/30 01:15:10;;;;;;;15.40;14.10;;;14.80;99.90;;;;;;5062472;28;20503;-64
2022/07/30 01:17:37;;;;;;;15.97;14.67;;;14.80;99.90;;;;;;5059077;28;20455;-65
2022/07/30 01:20:08;;;;;;;16.40;14.77;;;14.70;99.90;;;;;;5062434;28;20462;-66
2022/07/30 01:22:52;;;;;;;14.97;13.77;;;14.80;99.90;;;;;;5057217;28;20464;-65
2022/07/30 01:25:30;;;;;;;17.53;13.20;;;14.70;99.90;;;;;;5057115;28;20513;-65
2022/07/30 01:28:02;;;;;;;15.47;14.03;;;14.70;99.90;;;;;;5055669;28;20487;-66
2022/07/30 01:30:33;;;;;;;14.90;13.57;;;14.80;99.90;;;;;;5061829;28;20458;-68
2022/07/30 01:33:01;;;;;;;16.83;15.27;;;14.80;99.90;;;;;;5057700;28;20464;-68
2022/07/30 01:35:30;;;;;;;16.63;15.00;;;14.80;99.90;;;;;;5057278;28;20748;-67
2022/07/30 01:37:59;;;;;;;15.27;13.40;;;14.70;99.90;;;;;;5058962;28;20961;-67
2022/07/30 01:40:28;;;;;;;16.80;15.13;;;14.70;99.90;;;;;;5057350;28;20526;-68
2022/07/30 01:42:58;;;;;;;16.40;14.70;;;14.60;99.90;;;;;;5057885;28;20493;-68
2022/07/30 01:45:28;;;;;;;14.70;13.27;;;14.60;99.90;;;;;;5062540;28;20470;-68
2022/07/30 01:47:59;;;;;;;14.67;13.50;;;14.60;99.90;;;;;;5061671;28;20487;-67
2022/07/30 01:50:27;;;;;;;17.97;15.17;;;14.60;99.90;;;;;;5059928;28;20470;-68
2022/07/30 01:52:57;;;;;;;18.73;16.77;;;14.50;99.90;;;;;;5058539;28;20490;-67
2022/07/30 01:55:30;;;;;;;14.90;13.60;;;14.60;99.90;;;;;;5055848;28;20460;-68
2022/07/30 01:58:00;;;;;;;18.30;14.90;;;14.60;99.90;;;;;;5058031;28;20462;-68
2022/07/30 02:00:29;;;;;;;21.97;15.20;;;14.70;99.90;;;;;;5060930;28;20476;-67
2022/07/30 02:02:56;;;;;;;16.53;15.07;;;14.70;99.90;;;;;;5065908;28;20642;-69
2022/07/30 02:05:25;;;;;;;16.77;15.17;;;14.70;99.90;;;;;;5058590;28;20456;-68
2022/07/30 02:07:58;;;;;;;17.80;14.90;;;14.80;99.90;;;;;;5063831;28;20491;-67
2022/07/30 02:10:33;;;;;;;17.00;15.30;;;14.80;99.90;;;;;;5061253;28;20561;-68
2022/07/30 02:13:06;;;;;;;19.43;15.23;;;14.80;99.90;;;;;;5062943;28;20473;-68
2022/07/30 02:15:38;;;;;;;16.40;14.90;;;14.70;99.90;;;;;;5061925;28;20487;-68
2022/07/30 02:18:12;;;;;;;16.87;14.30;;;14.70;99.90;;;;;;5059929;28;20466;-67
2022/07/30 02:20:44;;;;;;;17.80;16.03;;;14.70;99.90;;;;;;5066462;28;20459;-68
2022/07/30 02:23:15;;;;;;;17.27;15.67;;;14.60;99.90;;;;;;5060579;28;20775;-68
2022/07/30 02:25:59;;;;;;;17.27;15.47;;;14.60;99.90;;;;;;5056202;28;20466;-69
2022/07/30 02:28:30;;;;;;;18.43;15.23;;;14.60;99.90;;;;;;5056074;28;20541;-68
2022/07/30 02:30:59;;;;;;;17.57;16.17;;;14.50;99.90;;;;;;5060771;28;20470;-69
2022/07/30 02:33:37;;;;;;;16.70;15.20;;;14.40;99.90;;;;;;5060791;28;20471;-68
2022/07/30 02:36:08;;;;;;;17.00;15.27;;;14.40;99.90;;;;;;5062748;28;20464;-67
2022/07/30 02:38:37;;;;;;;16.30;14.80;;;14.30;99.90;;;;;;5064621;28;20884;-68
2022/07/30 02:41:09;;;;;;;16.87;15.30;;;14.30;99.90;;;;;;5057662;28;20478;-68
2022/07/30 02:43:41;;;;;;;18.87;16.90;;;14.20;99.90;;;;;;5061925;28;20525;-68
2022/07/30 02:46:11;;;;;;;18.43;16.47;;;14.20;99.90;;;;;;5060455;28;20467;-68
2022/07/30 02:48:40;;;;;;;18.13;16.17;;;14.20;99.90;;;;;;5061766;28;20482;-67
2022/07/30 02:51:08;;;;;;;16.93;15.30;;;14.10;99.90;;;;;;5065351;28;20520;-68
2022/07/30 02:53:36;;;;;;;20.17;16.37;;;14.20;99.90;;;;;;5062401;28;20467;-68
2022/07/30 02:56:05;;;;;;;17.63;15.93;;;14.10;99.90;;;;;;5065240;28;20550;-67
2022/07/30 02:58:36;;;;;;;19.60;17.60;;;14.10;99.90;;;;;;5066071;28;20557;-68
2022/07/30 03:01:05;;;;;;;24.70;18.07;;;14.10;99.90;;;;;;5062888;28;20459;-66
2022/07/30 03:03:33;;;;;;;19.80;17.90;;;14.10;99.90;;;;;;5060029;28;20459;-66
2022/07/30 03:06:02;;;;;;;20.23;16.07;;;14.00;99.90;;;;;;5061333;28;20466;-65
2022/07/30 03:08:31;;;;;;;25.03;16.83;;;14.10;99.90;;;;;;5059275;28;20498;-66
2022/07/30 03:10:59;;;;;;;20.07;17.20;;;14.10;99.90;;;;;;5064683;28;20455;-65
2022/07/30 03:13:26;;;;;;;19.70;17.73;;;14.10;99.90;;;;;;5063736;28;20474;-67
2022/07/30 03:15:56;;;;;;;21.30;17.80;;;14.10;99.90;;;;;;5056443;28;20471;-65
2022/07/30 03:18:31;;;;;;;21.97;17.60;;;14.10;99.90;;;;;;5042228;28;20934;-66
2022/07/30 03:20:59;;;;;;;22.00;16.57;;;14.20;99.90;;;;;;5036499;28;20468;-65
2022/07/30 03:23:29;;;;;;;18.97;16.93;;;14.10;99.90;;;;;;5042434;28;20548;-64
2022/07/30 03:25:59;;;;;;;19.33;17.17;;;14.20;99.90;;;;;;5045755;28;20542;-65
2022/07/30 03:28:30;;;;;;;19.07;17.40;;;14.20;99.90;;;;;;5044111;28;20482;-66
2022/07/30 03:30:58;;;;;;;20.27;17.80;;;14.20;99.90;;;;;;5038912;28;20473;-66
2022/07/30 03:33:27;;;;;;;19.93;16.43;;;14.20;99.90;;;;;;5036934;28;20469;-65
2022/07/30 03:35:56;;;;;;;18.27;16.37;;;14.20;99.90;;;;;;5042557;28;20567;-65
2022/07/30 03:38:24;;;;;;;33.73;17.43;;;14.10;99.90;;;;;;5042229;28;20994;-64
2022/07/30 03:40:52;;;;;;;23.63;17.20;;;14.10;99.90;;;;;;5038676;28;20463;-66
2022/07/30 03:43:19;;;;;;;18.80;16.90;;;14.10;99.90;;;;;;5045009;28;20459;-65
2022/07/30 03:45:47;;;;;;;20.90;18.80;;;14.10;99.90;;;;;;5039773;28;20479;-64
2022/07/30 03:48:15;;;;;;;21.57;17.97;;;14.10;99.90;;;;;;5039785;28;20503;-65
2022/07/30 03:50:45;;;;;;;25.20;19.33;;;14.10;99.90;;;;;;5044063;28;20874;-64
2022/07/30 03:53:13;;;;;;;20.73;18.30;;;14.20;99.90;;;;;;5042060;28;20475;-65
2022/07/30 03:55:40;;;;;;;20.57;18.67;;;14.20;99.90;;;;;;5041471;28;20558;-65
2022/07/30 03:58:08;;;;;;;21.70;19.00;;;14.30;99.90;;;;;;5037503;28;20561;-66
2022/07/30 04:00:36;;;;;;;24.40;19.37;;;14.40;99.90;;;;;;5041879;28;20507;-66
2022/07/30 04:03:03;;;;;;;31.10;19.73;;;14.60;99.90;;;;;;5022091;28;20460;-66
2022/07/30 04:05:30;;;;;;;21.90;17.80;;;14.70;99.90;;;;;;5032961;28;20456;-65
2022/07/30 04:08:00;;;;;;;23.23;17.90;;;14.80;99.90;;;;;;5047049;28;21274;-65
2022/07/30 04:10:27;;;;;;;24.47;18.53;;;15.00;99.90;;;;;;5044744;28;20460;-66
2022/07/30 04:12:55;;;;;;;28.23;19.70;;;15.10;99.90;;;;;;5028499;28;21210;-66
2022/07/30 04:15:22;;;;;;;27.00;20.03;;;15.20;99.90;;;;;;5016705;28;20614;-66
2022/07/30 04:17:53;;;;;;;32.13;19.87;;;15.40;99.90;;;;;;5016617;28;20540;-65
2022/07/30 04:20:24;;;;;;;27.90;20.10;;;15.50;99.90;;;;;;5015887;28;20956;-64
2022/07/30 04:22:52;;;;;;;27.07;20.33;;;15.70;99.90;;;;;;5014466;28;20552;-65
2022/07/30 04:25:21;;;;;;;25.10;19.57;;;15.80;99.90;;;;;;5016915;28;20841;-64
2022/07/30 04:27:49;;;;;;;28.30;19.03;;;16.00;99.90;;;;;;5015087;28;20590;-65
2022/07/30 04:30:16;;;;;;;32.27;19.60;;;16.10;99.90;;;;;;5015266;28;20460;-65
2022/07/30 04:32:43;;;;;;;32.83;19.90;;;16.10;99.90;;;;;;5016601;28;20501;-67
2022/07/30 04:35:10;;;;;;;34.33;18.93;;;16.20;99.90;;;;;;5016419;28;20464;-65
2022/07/30 04:37:37;;;;;;;36.60;18.33;;;16.30;99.90;;;;;;5015363;28;20461;-66
2022/07/30 04:40:05;;;;;;;31.70;17.57;;;16.30;99.90;;;;;;5016128;28;22391;-66
2022/07/30 04:42:33;;;;;;;34.93;19.07;;;16.30;99.90;;;;;;5014933;28;21062;-65
2022/07/30 04:45:01;;;;;;;34.40;19.00;;;16.40;99.90;;;;;;5015339;28;20509;-67
2022/07/30 04:47:28;;;;;;;32.73;19.47;;;16.60;99.90;;;;;;5015882;28;21121;-66
2022/07/30 04:49:56;;;;;;;36.57;19.37;;;16.60;99.90;;;;;;5016172;28;20586;-66
2022/07/30 04:52:24;;;;;;;33.97;18.70;;;16.60;99.90;;;;;;5016109;28;21311;-64
2022/07/30 04:54:55;;;;;;;34.83;20.13;;;16.70;99.90;;;;;;5015963;28;20543;-65
2022/07/30 04:57:24;;;;;;;35.93;20.33;;;16.60;99.90;;;;;;5015371;28;20828;-65
2022/07/30 04:59:53;;;;;;;43.93;20.17;;;16.70;99.90;;;;;;5015790;28;23019;-66
2022/07/30 05:02:22;;;;;;;33.70;18.97;;;16.70;99.90;;;;;;5015623;28;20452;-66
2022/07/30 05:04:50;;;;;;;43.83;21.43;;;16.80;99.90;;;;;;5015775;28;20895;-65
2022/07/30 05:07:19;;;;;;;48.33;21.07;;;16.70;99.90;;;;;;5015482;28;20456;-65
2022/07/30 05:09:46;;;;;;;35.70;20.83;;;16.70;99.90;;;;;;5015532;28;21303;-67
2022/07/30 05:12:13;;;;;;;33.77;20.40;;;16.70;99.90;;;;;;5013944;28;20490;-67
2022/07/30 05:14:40;;;;;;;34.10;19.13;;;16.70;99.90;;;;;;5014333;28;20464;-66
2022/07/30 05:17:09;;;;;;;33.40;20.33;;;16.70;99.90;;;;;;5016590;28;20864;-66
2022/07/30 05:19:36;;;;;;;36.30;20.07;;;16.70;99.90;;;;;;5015832;28;20471;-66
2022/07/30 05:22:02;;;;;;;34.23;20.93;;;16.70;99.90;;;;;;5015837;28;20502;-66
2022/07/30 05:24:29;;;;;;;44.97;21.03;;;16.90;99.90;;;;;;5016213;28;20487;-65
2022/07/30 05:26:56;;;;;;;39.63;21.60;;;17.00;99.90;;;;;;5013838;28;22320;-65
2022/07/30 05:29:23;;;;;;;39.73;21.27;;;17.10;99.90;;;;;;5016748;28;20493;-66
2022/07/30 05:31:50;;;;;;;37.50;22.23;;;17.10;99.90;;;;;;5015506;28;20507;-65
2022/07/30 05:34:18;;;;;;;40.70;23.80;;;17.10;99.90;;;;;;5014853;28;21100;-66
2022/07/30 05:36:45;;;;;;;41.73;23.27;;;17.20;99.90;;;;;;5014396;28;20544;-66
2022/07/30 05:39:12;;;;;;;33.27;22.17;;;17.20;99.90;;;;;;5014442;28;20475;-67
2022/07/30 05:41:39;;;;;;;29.67;20.23;;;17.10;99.90;;;;;;5015603;28;20790;-66
2022/07/30 05:44:07;;;;;;;25.40;18.20;;;17.20;99.90;;;;;;5014838;28;20467;-66
2022/07/30 05:46:34;;;;;;;31.77;19.43;;;17.20;99.90;;;;;;5014737;28;20820;-66
2022/07/30 05:49:00;;;;;;;31.27;20.87;;;17.20;99.90;;;;;;5014652;28;21018;-65
2022/07/30 05:51:29;;;;;;;30.60;19.63;;;17.30;99.90;;;;;;5013822;28;20463;-65
2022/07/30 05:53:55;;;;;;;33.53;19.10;;;17.30;99.90;;;;;;5013609;28;20468;-66
2022/07/30 05:56:22;;;;;;;34.30;20.60;;;17.20;99.90;;;;;;5014328;28;20474;-66
2022/07/30 05:58:49;;;;;;;33.40;21.17;;;17.30;99.90;;;;;;5014227;28;20459;-66
2022/07/30 06:01:16;;;;;;;36.57;21.73;;;17.10;99.90;;;;;;5011099;28;21104;-65
2022/07/30 06:03:42;;;;;;;31.30;21.90;;;17.00;99.90;;;;;;5012340;28;20550;-66
2022/07/30 06:06:09;;;;;;;31.30;23.00;;;16.90;99.90;;;;;;5012731;28;20737;-65
2022/07/30 06:08:37;;;;;;;34.10;20.93;;;17.10;99.90;;;;;;5011483;28;21032;-67
2022/07/30 06:11:04;;;;;;;30.27;20.10;;;17.10;99.90;;;;;;5011648;28;20806;-66
2022/07/30 06:13:31;;;;;;;25.00;18.43;;;17.20;99.90;;;;;;5011455;28;20491;-66
2022/07/30 06:15:58;;;;;;;34.97;21.17;;;17.30;99.90;;;;;;5012730;28;20502;-66
2022/07/30 06:18:25;;;;;;;28.73;19.77;;;17.20;99.90;;;;;;5013126;28;21250;-65
2022/07/30 06:20:53;;;;;;;37.13;23.83;;;17.20;99.90;;;;;;5013781;28;20527;-66
2022/07/30 06:23:20;;;;;;;44.43;25.80;;;17.10;99.90;;;;;;5012992;28;21031;-66
2022/07/30 06:25:50;;;;;;;40.30;25.67;;;17.20;99.90;;;;;;5012604;28;20525;-66
2022/07/30 06:28:17;;;;;;;43.37;25.37;;;17.20;99.90;;;;;;5013684;28;20472;-67
2022/07/30 06:30:44;;;;;;;45.13;27.13;;;17.20;99.90;;;;;;5012256;28;20795;-65
2022/07/30 06:33:11;;;;;;;44.73;25.27;;;17.20;99.90;;;;;;5013633;28;20754;-66
2022/07/30 06:35:38;;;;;;;41.53;24.90;;;17.30;99.90;;;;;;5012186;28;20962;-67
2022/07/30 06:38:05;;;;;;;36.37;26.40;;;17.40;99.90;;;;;;5013363;28;20848;-65
2022/07/30 06:40:32;;;;;;;38.40;24.43;;;17.30;99.90;;;;;;5012950;28;20648;-66
2022/07/30 06:43:00;;;;;;;32.90;24.50;;;17.50;99.90;;;;;;5013220;28;20482;-66
2022/07/30 06:45:27;;;;;;;40.83;25.50;;;17.60;99.90;;;;;;5014645;28;20475;-67
2022/07/30 06:47:57;;;;;;;34.10;23.90;;;17.70;99.90;;;;;;5017021;28;20539;-65
2022/07/30 06:50:24;;;;;;;34.10;23.77;;;18.20;99.90;;;;;;5017003;28;21268;-66
2022/07/30 06:52:51;;;;;;;30.53;24.33;;;18.40;99.90;;;;;;5018613;28;20463;-66
2022/07/30 06:55:19;;;;;;;27.80;23.30;;;18.40;99.90;;;;;;5044153;28;20958;-65
2022/07/30 06:57:47;;;;;;;31.10;24.73;;;18.50;99.90;;;;;;5042514;28;20460;-65
2022/07/30 07:00:16;;;;;;;30.67;24.37;;;18.70;99.90;;;;;;5047688;28;20448;-65
2022/07/30 07:02:43;;;;;;;36.47;24.33;;;19.00;99.90;;;;;;5040392;28;20548;-66
2022/07/30 07:05:10;;;;;;;37.13;26.07;;;19.10;99.90;;;;;;5043659;28;20471;-66
2022/07/30 07:07:38;;;;;;;36.10;26.13;;;19.40;99.90;;;;;;5017103;28;20479;-67
2022/07/30 07:10:07;;;;;;;33.30;25.87;;;19.50;99.90;;;;;;5014593;28;20495;-66
2022/07/30 07:12:34;;;;;;;34.07;28.30;;;19.70;99.90;;;;;;5015795;28;21053;-66
2022/07/30 07:15:00;;;;;;;30.30;26.53;;;19.80;99.90;;;;;;5016035;28;20823;-67
2022/07/30 07:17:28;;;;;;;37.83;25.37;;;20.00;99.90;;;;;;5017619;28;20467;-66
2022/07/30 07:19:55;;;;;;;33.10;29.27;;;20.10;99.90;;;;;;5017181;28;20460;-65
2022/07/30 07:22:22;;;;;;;33.17;27.97;;;20.20;99.90;;;;;;5014337;28;20468;-66
2022/07/30 07:24:49;;;;;;;30.90;27.20;;;20.00;99.90;;;;;;5013692;28;20611;-66
2022/07/30 07:27:16;;;;;;;34.20;29.50;;;20.10;99.90;;;;;;5013872;28;20460;-65
2022/07/30 07:29:43;;;;;;;34.20;28.20;;;20.40;99.90;;;;;;5014539;28;20531;-66
2022/07/30 07:32:10;;;;;;;31.73;28.03;;;20.60;99.90;;;;;;5014593;28;20483;-67
2022/07/30 07:34:38;;;;;;;32.43;28.30;;;20.80;99.90;;;;;;5015185;28;20457;-67
2022/07/30 07:37:05;;;;;;;29.90;27.10;;;21.10;99.90;;;;;;5013611;28;20474;-66
2022/07/30 07:39:32;;;;;;;31.27;27.93;;;21.30;99.90;;;;;;5016043;28;20483;-66
2022/07/30 07:41:59;;;;;;;36.73;26.77;;;21.40;99.90;;;;;;5015124;28;20521;-66
2022/07/30 07:44:26;;;;;;;35.73;26.27;;;21.20;99.90;;;;;;5015085;28;20464;-67
2022/07/30 07:46:53;;;;;;;30.10;27.10;;;21.10;99.90;;;;;;5015484;28;20464;-66
2022/07/30 07:49:20;;;;;;;28.60;25.50;;;20.90;99.90;;;;;;5015949;28;20499;-66
2022/07/30 07:51:48;;;;;;;28.23;25.30;;;21.00;99.90;;;;;;5015143;28;20465;-67
2022/07/30 07:54:15;;;;;;;29.33;26.30;;;20.90;99.90;;;;;;5013964;28;20476;-66
2022/07/30 07:56:42;;;;;;;28.57;25.47;;;20.90;99.90;;;;;;5015065;28;20503;-67
2022/07/30 07:59:09;;;;;;;28.50;25.50;;;21.00;99.90;;;;;;5014147;28;20791;-66
2022/07/30 08:01:36;;;;;;;29.60;26.50;;;20.90;99.90;;;;;;5015421;28;20463;-66
2022/07/30 08:04:04;;;;;;;27.63;24.90;;;20.90;99.90;;;;;;5015033;28;20461;-66
2022/07/30 08:06:31;;;;;;;31.43;24.50;;;20.90;99.90;;;;;;5015056;28;21051;-67
2022/07/30 08:09:00;;;;;;;33.70;26.07;;;20.90;99.90;;;;;;5016251;28;20495;-67
2022/07/30 08:11:28;;;;;;;35.13;26.97;;;20.70;99.90;;;;;;5014992;28;20457;-67
2022/07/30 08:13:56;;;;;;;28.47;25.77;;;20.90;99.90;;;;;;5015956;28;20467;-69
2022/07/30 08:16:23;;;;;;;27.17;24.70;;;20.90;99.90;;;;;;5015254;28;20484;-66
2022/07/30 08:18:50;;;;;;;36.20;26.30;;;20.90;99.90;;;;;;5013961;28;20573;-69
2022/07/30 08:21:17;;;;;;;31.67;25.20;;;20.90;99.90;;;;;;5015964;28;21019;-68
2022/07/30 08:23:44;;;;;;;25.67;23.20;;;20.80;99.90;;;;;;5014794;28;21077;-68
2022/07/30 08:26:12;;;;;;;24.83;22.53;;;20.90;99.90;;;;;;5013757;28;20560;-68
2022/07/30 08:28:40;;;;;;;25.70;23.50;;;21.10;99.90;;;;;;5013444;28;20771;-67
2022/07/30 08:31:07;;;;;;;24.63;22.43;;;21.30;99.90;;;;;;5015154;28;20496;-67
2022/07/30 08:33:34;;;;;;;25.53;23.00;;;21.80;99.90;;;;;;5016460;28;20595;-67
2022/07/30 08:36:01;;;;;;;24.87;22.50;;;22.20;99.90;;;;;;5015434;28;20468;-67
2022/07/30 08:38:28;;;;;;;24.53;22.27;;;22.00;99.90;;;;;;5016311;28;20464;-68
2022/07/30 08:40:55;;;;;;;25.67;22.80;;;22.30;99.90;;;;;;5014848;28;20482;-67
2022/07/30 08:43:25;;;;;;;22.93;21.13;;;22.70;99.90;;;;;;5015751;28;20469;-66
2022/07/30 08:45:53;;;;;;;23.77;21.67;;;22.90;99.90;;;;;;5015121;28;20531;-67
2022/07/30 08:48:22;;;;;;;23.60;21.47;;;23.50;99.90;;;;;;5014297;28;20472;-67
2022/07/30 08:50:50;;;;;;;23.27;21.33;;;24.00;99.90;;;;;;5012852;28;20810;-67
2022/07/30 08:53:17;;;;;;;23.67;21.63;;;24.40;99.90;;;;;;5013474;28;20872;-67
2022/07/30 08:55:45;;;;;;;27.83;22.70;;;24.30;99.90;;;;;;5013357;28;23056;-67
2022/07/30 08:58:23;;;;;;;23.23;21.53;;;24.20;99.90;;;;;;5014596;28;20464;-67
2022/07/30 09:00:51;;;;;;;23.20;21.13;;;25.10;99.90;;;;;;5014492;28;20563;-67
2022/07/30 09:03:18;;;;;;;22.57;20.60;;;25.20;99.90;;;;;;5014181;28;20947;-68
2022/07/30 09:05:45;;;;;;;22.00;20.30;;;24.80;99.90;;;;;;5014652;28;20487;-68
2022/07/30 09:08:12;;;;;;;22.73;20.27;;;25.00;99.90;;;;;;5015957;28;20468;-67
2022/07/30 09:10:41;;;;;;;23.00;21.27;;;25.00;99.90;;;;;;5014440;28;20521;-68
2022/07/30 09:13:23;;;;;;;23.67;21.33;;;25.20;99.90;;;;;;5012944;28;20778;-68
2022/07/30 09:15:52;;;;;;;22.77;20.70;;;25.10;99.90;;;;;;5015080;28;20479;-67
2022/07/30 09:18:30;;;;;;;20.60;19.20;;;25.50;99.90;;;;;;5015122;28;20471;-68
2022/07/30 09:20:59;;;;;;;20.57;19.20;;;26.10;99.90;;;;;;5014684;28;20851;-67
2022/07/30 09:23:26;;;;;;;21.77;20.00;;;26.50;99.90;;;;;;5013465;28;20456;-68
2022/07/30 09:25:55;;;;;;;21.93;20.20;;;26.30;99.90;;;;;;5011975;28;20559;-68
2022/07/30 09:28:28;;;;;;;22.10;20.43;;;26.50;99.90;;;;;;5012016;28;20979;-68
2022/07/30 09:30:57;;;;;;;20.90;19.50;;;25.80;99.90;;;;;;5013687;28;20479;-67
2022/07/30 09:33:38;;;;;;;21.50;19.90;;;25.60;99.90;;;;;;5011137;28;20815;-68
2022/07/30 09:36:07;;;;;;;18.43;17.13;;;26.10;99.90;;;;;;5013041;28;20470;-67
2022/07/30 09:38:46;;;;;;;18.57;17.23;;;25.60;99.90;;;;;;5012507;28;20727;-67
2022/07/30 09:41:14;;;;;;;16.93;15.30;;;25.60;99.90;;;;;;5012824;28;21042;-67
2022/07/30 09:43:46;;;;;;;17.23;15.90;;;25.80;99.90;;;;;;5013023;28;20531;-68
2022/07/30 09:46:15;;;;;;;18.90;17.60;;;25.80;98.80;;;;;;5014030;28;20556;-68
2022/07/30 09:48:43;;;;;;;18.50;17.07;;;26.20;99.10;;;;;;5013302;28;20480;-67
2022/07/30 09:51:10;;;;;;;18.67;17.27;;;26.70;98.30;;;;;;5012458;28;20587;-68
2022/07/30 09:53:52;;;;;;;18.77;17.60;;;26.60;98.30;;;;;;5012601;28;20460;-67
2022/07/30 09:56:27;;;;;;;19.03;17.73;;;26.80;98.40;;;;;;5014514;28;20559;-68
2022/07/30 09:58:54;;;;;;;17.57;16.47;;;27.10;98.20;;;;;;5013626;28;20467;-67
2022/07/30 10:01:22;;;;;;;17.93;16.70;;;27.30;96.50;;;;;;5013863;28;21010;-67
2022/07/30 10:03:49;;;;;;;17.83;16.63;;;27.50;93.40;;;;;;5013822;28;20452;-68
2022/07/30 10:06:16;;;;;;;17.63;16.00;;;27.30;92.60;;;;;;5014092;28;20476;-68
2022/07/30 10:08:48;;;;;;;17.43;15.97;;;27.20;93.10;;;;;;5014448;28;20530;-68
2022/07/30 10:11:16;;;;;;;17.83;16.27;;;27.20;91.60;;;;;;5014884;28;21458;-67
2022/07/30 10:13:44;;;;;;;18.20;16.70;;;27.60;88.90;;;;;;5016144;28;20854;-68
2022/07/30 10:16:12;;;;;;;18.23;16.93;;;28.20;90.60;;;;;;5040664;28;20480;-68
2022/07/30 10:18:42;;;;;;;18.93;17.30;;;28.20;86.10;;;;;;5039097;28;20506;-68
2022/07/30 10:21:10;;;;;;;18.27;16.87;;;27.90;88.50;;;;;;5030508;28;20461;-67
2022/07/30 10:23:37;;;;;;;16.50;15.50;;;28.10;89.20;;;;;;5017711;28;20451;-69
2022/07/30 10:26:04;;;;;;;18.77;16.87;;;28.10;88.10;;;;;;5017910;28;20464;-67
2022/07/30 10:28:31;;;;;;;16.73;15.80;;;28.00;84.80;;;;;;5016801;28;20464;-68
2022/07/30 10:30:58;;;;;;;17.73;16.30;;;28.10;82.40;;;;;;5017843;28;20994;-68
2022/07/30 10:33:26;;;;;;;16.43;15.43;;;28.20;80.80;;;;;;5017625;28;20460;-68
2022/07/30 10:35:56;;;;;;;16.80;15.90;;;28.70;80.60;;;;;;5017618;28;20468;-69
2022/07/30 10:38:28;;;;;;;15.40;14.60;;;29.10;77.40;;;;;;5018219;28;20474;-68
2022/07/30 10:41:00;;;;;;;16.93;15.70;;;28.90;73.40;;;;;;5017335;28;20472;-68
2022/07/30 10:43:56;;;;;;;17.07;16.00;;;29.00;71.20;;;;;;5017635;28;20567;-68
2022/07/30 10:46:32;;;;;;;17.17;16.17;;;28.70;73.90;;;;;;5010051;28;20565;-67
2022/07/30 10:49:09;;;;;;;17.13;15.73;;;28.00;76.10;;;;;;5018413;28;20468;-68
2022/07/30 10:51:48;;;;;;;16.90;15.90;;;27.60;76.90;;;;;;5018070;28;20496;-67
2022/07/30 10:54:40;;;;;;;16.80;15.70;;;27.30;82.20;;;;;;5017439;28;20519;-68
2022/07/30 10:57:10;;;;;;;16.40;15.60;;;27.40;83.70;;;;;;5013270;28;20464;-68
2022/07/30 11:00:12;;;;;;;17.13;16.03;;;28.20;81.80;;;;;;5017407;28;20466;-68
2022/07/30 11:02:39;;;;;;;16.87;15.77;;;28.70;77.70;;;;;;5015228;28;21036;-68
2022/07/30 11:05:27;;;;;;;15.90;15.00;;;29.20;74.40;;;;;;5018788;28;20460;-69
2022/07/30 11:08:15;;;;;;;16.43;15.17;;;29.60;71.60;;;;;;5019729;28;20456;-68
2022/07/30 11:10:43;;;;;;;15.20;14.40;;;29.80;71.70;;;;;;5019945;28;20487;-68
2022/07/30 11:13:10;;;;;;;16.07;15.10;;;29.50;69.70;;;;;;5020989;28;20460;-68
2022/07/30 11:15:56;;;;;;;16.67;15.67;;;29.80;68.00;;;;;;5020181;28;20562;-68
2022/07/30 11:18:24;;;;;;;16.20;15.13;;;29.80;69.00;;;;;;5021066;28;20515;-68
2022/07/30 11:21:19;;;;;;;13.90;13.17;;;30.40;68.40;;;;;;5019725;28;21416;-69
2022/07/30 11:23:46;;;;;;;14.70;13.90;;;30.40;68.10;;;;;;5014348;28;20989;-69
2022/07/30 11:26:48;;;;;;;24.00;15.40;;;30.00;66.50;;;;;;5020441;28;20464;-69
2022/07/30 11:29:34;;;;;;;15.50;14.50;;;29.90;68.70;;;;;;5020579;28;20491;-69
2022/07/30 11:32:26;;;;;;;15.40;14.37;;;29.80;66.30;;;;;;5020123;28;20742;-68
2022/07/30 11:35:10;;;;;;;15.50;14.50;;;30.00;68.10;;;;;;5019965;28;20539;-69
2022/07/30 11:37:56;;;;;;;15.73;14.90;;;30.70;64.90;;;;;;5019585;28;20462;-68
2022/07/30 11:40:24;;;;;;;17.23;16.13;;;30.50;67.80;;;;;;5019210;28;21251;-68
2022/07/30 11:43:13;;;;;;;15.90;14.80;;;29.60;69.30;;;;;;5018272;28;20491;-68
2022/07/30 11:45:41;;;;;;;16.07;15.03;;;29.20;70.00;;;;;;5019543;28;21080;-68
2022/07/30 11:48:11;;;;;;;16.17;15.00;;;29.60;69.20;;;;;;5020586;28;20468;-69
2022/07/30 11:50:39;;;;;;;15.17;13.93;;;30.30;68.30;;;;;;5019564;28;20495;-68
2022/07/30 11:53:08;;;;;;;15.37;14.40;;;30.00;67.80;;;;;;5018823;28;20470;-69
2022/07/30 11:55:37;;;;;;;16.90;15.10;;;29.30;69.00;;;;;;5019583;28;20487;-68
2022/07/30 11:58:07;;;;;;;15.00;14.00;;;29.20;69.40;;;;;;5019218;28;20556;-67
2022/07/30 12:00:37;;;;;;;15.23;14.03;;;29.40;68.30;;;;;;5018428;28;20449;-68
2022/07/30 12:03:10;;;;;;;15.03;14.13;;;30.00;67.90;;;;;;5019062;28;21158;-68
2022/07/30 12:05:39;;;;;;;15.13;14.00;;;30.20;66.00;;;;;;5019311;28;20474;-68
2022/07/30 12:08:06;;;;;;;14.80;13.97;;;30.70;64.40;;;;;;5018378;28;21013;-69
2022/07/30 12:10:34;;;;;;;16.90;14.47;;;30.50;62.40;;;;;;5019221;28;20498;-69
2022/07/30 12:13:09;;;;;;;15.43;14.43;;;30.20;64.50;;;;;;5019193;28;20529;-70
2022/07/30 12:15:38;;;;;;;15.73;14.73;;;29.80;64.40;;;;;;5017769;28;20891;-69
2022/07/30 12:18:06;;;;;;;15.33;14.53;;;29.50;65.50;;;;;;5018351;28;20811;-68
2022/07/30 12:20:35;;;;;;;13.90;13.20;;;30.10;64.00;;;;;;5019428;28;20472;-68
2022/07/30 12:23:02;;;;;;;14.73;13.90;;;29.90;65.00;;;;;;5019639;28;20460;-68
2022/07/30 12:25:30;;;;;;;14.00;13.30;;;30.50;64.90;;;;;;5019546;28;20528;-68
2022/07/30 12:27:56;;;;;;;14.73;13.60;;;30.70;62.30;;;;;;5019644;28;22605;-68
2022/07/30 12:30:24;;;;;;;13.70;12.83;;;30.80;62.10;;;;;;5019801;28;20890;-69
2022/07/30 12:32:51;;;;;;;14.87;13.97;;;31.20;60.20;;;;;;5019159;28;20875;-69
2022/07/30 12:35:18;;;;;;;14.60;13.70;;;32.00;59.40;;;;;;5019690;28;20483;-69
2022/07/30 12:38:04;;;;;;;15.20;14.20;;;32.20;59.60;;;;;;5019205;28;20465;-68
2022/07/30 12:40:31;;;;;;;14.93;13.80;;;32.60;57.40;;;;;;5018899;28;20467;-69
2022/07/30 12:42:58;;;;;;;15.07;13.73;;;32.90;57.40;;;;;;5018923;28;20491;-69